Time;durP1;ratioP1;P1;durP2;ratioP2;P2;SDS_P1;SDS_P2;PMS_P1;PMS_P2;Temp;Humidity;BMP_temperature;BMP_pressure;BME280_temperature;BME280_humidity;BME280_pressure;Samples;Min_cycle;Max_cycle;Signal;HPM_P1;HPM_P2
2022/03/15 00:00:53;;;;;;;5.73;2.50;;;;;;;6.61;78.35;101447.81;5034638;28;20034;-80
2022/03/15 00:03:18;;;;;;;8.02;3.35;;;;;;;6.55;78.60;101444.91;5034828;28;20472;-80
2022/03/15 00:05:44;;;;;;;6.07;2.72;;;;;;;6.39;79.17;101440.25;5034536;28;20052;-80
2022/03/15 00:08:09;;;;;;;8.48;3.35;;;;;;;6.40;79.09;101443.75;5035188;28;20132;-82
2022/03/15 00:10:35;;;;;;;6.63;2.92;;;;;;;6.38;78.56;101440.41;5034950;28;20044;-80
2022/03/15 00:13:00;;;;;;;7.00;2.53;;;;;;;6.43;78.83;101438.94;5033521;28;20384;-80
2022/03/15 00:15:27;;;;;;;7.15;3.03;;;;;;;6.42;78.34;101439.09;5035317;28;20025;-80
2022/03/15 00:17:53;;;;;;;8.32;3.10;;;;;;;6.42;78.36;101442.63;5035910;28;20079;-80
2022/03/15 00:20:22;;;;;;;7.72;2.85;;;;;;;6.38;78.90;101440.41;5034734;28;20045;-80
2022/03/15 00:22:48;;;;;;;6.80;2.60;;;;;;;6.53;78.39;101439.69;5034890;28;20025;-80
2022/03/15 00:25:16;;;;;;;7.28;2.75;;;;;;;6.49;78.25;101441.00;5035213;28;20388;-80
2022/03/15 00:27:46;;;;;;;11.32;2.70;;;;;;;6.48;78.01;101441.16;5035046;28;20029;-80
2022/03/15 00:30:12;;;;;;;5.00;2.25;;;;;;;6.49;77.32;101441.00;5034567;28;20038;-80
2022/03/15 00:32:37;;;;;;;7.10;2.40;;;;;;;6.55;77.22;101439.53;5034608;28;20041;-80
2022/03/15 00:35:08;;;;;;;6.80;2.40;;;;;;;6.60;77.47;101442.63;5033567;28;20452;-80
2022/03/15 00:37:36;;;;;;;5.70;2.50;;;;;;;6.55;77.73;101434.19;5034763;28;20030;-80
2022/03/15 00:40:02;;;;;;;7.53;2.42;;;;;;;6.54;76.93;101432.50;5034710;28;20064;-80
2022/03/15 00:42:28;;;;;;;6.22;2.80;;;;;;;6.49;77.99;101435.63;5016630;28;20037;-81
2022/03/15 00:44:53;;;;;;;6.20;2.77;;;;;;;6.59;76.99;101432.91;5034522;28;20040;-80
2022/03/15 00:47:19;;;;;;;4.37;2.33;;;;;;;6.49;77.86;101437.47;5034824;28;20738;-80
2022/03/15 00:49:44;;;;;;;8.05;3.28;;;;;;;6.45;78.07;101433.44;5033194;28;20033;-80
2022/03/15 00:52:09;;;;;;;6.75;2.78;;;;;;;6.42;77.41;101433.75;5032881;28;20030;-80
2022/03/15 00:54:35;;;;;;;5.57;2.40;;;;;;;6.40;77.74;101428.53;5034172;28;20041;-80
2022/03/15 00:57:00;;;;;;;7.23;2.70;;;;;;;6.42;77.31;101428.41;5035145;28;20056;-80
2022/03/15 00:59:26;;;;;;;7.13;2.65;;;;;;;6.45;77.30;101423.56;5034151;28;20067;-81
2022/03/15 01:01:51;;;;;;;6.53;2.50;;;;;;;6.48;76.99;101425.91;5036204;28;20041;-80
2022/03/15 01:04:16;;;;;;;6.63;2.40;;;;;;;6.48;76.58;101423.25;5047001;28;20272;-80
2022/03/15 01:06:42;;;;;;;6.83;2.43;;;;;;;6.49;76.88;101424.94;5042233;28;20440;-81
2022/03/15 01:09:09;;;;;;;10.77;3.72;;;;;;;6.41;77.23;101424.88;5037349;28;20265;-81
2022/03/15 01:11:35;;;;;;;8.07;2.80;;;;;;;6.33;77.80;101429.28;5036832;28;20041;-81
2022/03/15 01:14:00;;;;;;;5.97;2.45;;;;;;;6.34;77.86;101422.94;5035167;28;20452;-80
2022/03/15 01:16:25;;;;;;;8.47;2.40;;;;;;;6.49;77.41;101418.72;5033038;28;20041;-80
2022/03/15 01:18:51;;;;;;;6.73;2.80;;;;;;;6.47;77.07;101412.69;5034242;28;20083;-80
2022/03/15 01:21:17;;;;;;;6.13;2.13;;;;;;;6.58;76.29;101412.47;5033981;28;20030;-80
2022/03/15 01:23:43;;;;;;;8.43;2.75;;;;;;;6.53;76.52;101412.91;5034555;28;20045;-80
2022/03/15 01:26:09;;;;;;;7.15;2.40;;;;;;;6.52;77.02;101410.41;5035549;28;20033;-79
2022/03/15 01:28:35;;;;;;;6.47;2.53;;;;;;;6.48;77.38;101403.66;5038472;28;20116;-80
2022/03/15 01:31:00;;;;;;;6.15;2.55;;;;;;;6.37;77.60;101403.91;5038273;28;20403;-80
2022/03/15 01:33:26;;;;;;;7.47;3.63;;;;;;;6.32;77.31;101407.03;5038058;28;20037;-80
2022/03/15 01:35:53;;;;;;;7.10;2.75;;;;;;;6.28;77.50;101416.34;5038232;28;20032;-80
2022/03/15 01:38:18;;;;;;;7.57;3.15;;;;;;;6.25;77.90;101412.19;5038121;28;20057;-80
2022/03/15 01:40:44;;;;;;;8.10;2.80;;;;;;;6.27;78.28;101403.97;5038164;28;20072;-80
2022/03/15 01:43:10;;;;;;;8.45;3.03;;;;;;;6.17;78.62;101409.41;5037985;28;20036;-79
2022/03/15 01:45:40;;;;;;;8.48;2.60;;;;;;;6.16;78.46;101401.53;5037740;28;20034;-80
2022/03/15 01:48:07;;;;;;;6.75;2.65;;;;;;;6.33;77.76;101399.84;5038095;28;20052;-80
2022/03/15 01:50:33;;;;;;;7.65;2.85;;;;;;;6.23;78.01;101399.94;5037431;28;20033;-83
2022/03/15 01:52:58;;;;;;;6.35;2.17;;;;;;;6.24;78.01;101404.31;5037920;28;20477;-80
2022/03/15 01:55:24;;;;;;;5.47;2.42;;;;;;;6.12;78.47;101395.63;5037605;28;20381;-80
2022/03/15 01:57:50;;;;;;;6.32;2.13;;;;;;;6.19;78.42;101396.72;5038454;28;20041;-79
2022/03/15 02:00:18;;;;;;;4.80;2.17;;;;;;;6.26;77.66;101397.81;5037264;28;20033;-80
2022/03/15 02:02:45;;;;;;;8.52;2.60;;;;;;;6.34;77.55;101386.31;5038123;28;20038;-80
2022/03/15 02:05:11;;;;;;;8.43;2.58;;;;;;;6.27;77.65;101394.09;5037317;28;20037;-80
2022/03/15 02:07:37;;;;;;;6.32;2.50;;;;;;;6.42;76.51;101397.09;5037516;28;20072;-80
2022/03/15 02:10:03;;;;;;;7.20;2.30;;;;;;;6.56;76.00;101385.84;5037351;28;20460;-79
2022/03/15 02:12:29;;;;;;;6.93;2.63;;;;;;;6.74;74.81;101387.66;5037954;28;20029;-79
2022/03/15 02:15:01;;;;;;;9.23;2.67;;;;;;;6.79;74.96;101390.69;5037633;28;20045;-79
2022/03/15 02:17:26;;;;;;;6.93;2.55;;;;;;;6.85;74.62;101380.19;5037540;28;20029;-80
2022/03/15 02:19:52;;;;;;;5.35;2.13;;;;;;;6.88;74.13;101384.38;5037980;28;20112;-79
2022/03/15 02:22:19;;;;;;;5.90;2.25;;;;;;;6.99;73.91;101376.06;5037193;28;20048;-79
2022/03/15 02:24:45;;;;;;;5.97;2.05;;;;;;;6.99;73.69;101378.75;5036867;28;20029;-80
2022/03/15 02:27:10;;;;;;;8.10;2.45;;;;;;;7.05;73.52;101378.13;5037143;28;20055;-80
2022/03/15 02:29:35;;;;;;;6.97;2.97;;;;;;;6.99;73.12;101370.72;5036507;28;20041;-77
2022/03/15 02:32:00;;;;;;;7.43;2.33;;;;;;;6.95;73.77;101369.38;5036353;28;20041;-80
2022/03/15 02:34:26;;;;;;;7.97;2.70;;;;;;;6.91;74.22;101365.31;5036951;28;20017;-79
2022/03/15 02:36:51;;;;;;;5.80;2.17;;;;;;;6.80;73.81;101361.09;5035912;28;20362;-79
2022/03/15 02:39:17;;;;;;;9.57;2.23;;;;;;;6.88;73.73;101358.44;5036056;28;20268;-79
2022/03/15 02:41:42;;;;;;;7.47;2.93;;;;;;;6.82;73.55;101358.22;5036545;28;20036;-79
2022/03/15 02:44:09;;;;;;;5.45;2.38;;;;;;;6.67;74.33;101351.75;5036399;28;20022;-79
2022/03/15 02:46:36;;;;;;;6.38;2.60;;;;;;;6.68;75.00;101348.09;5036633;28;20042;-80
2022/03/15 02:49:02;;;;;;;7.38;2.13;;;;;;;6.47;74.97;101357.31;5036758;28;20380;-79
2022/03/15 02:51:28;;;;;;;6.05;2.20;;;;;;;6.27;75.76;101353.13;5036334;28;20097;-80
2022/03/15 02:53:54;;;;;;;4.90;2.10;;;;;;;6.36;76.63;101352.22;5036486;28;20059;-79
2022/03/15 02:56:21;;;;;;;7.55;2.55;;;;;;;6.28;76.73;101354.81;5036351;28;20069;-80
2022/03/15 02:58:46;;;;;;;4.85;2.17;;;;;;;6.38;76.21;101350.22;5037071;28;20115;-80
2022/03/15 03:01:12;;;;;;;5.75;2.00;;;;;;;6.36;76.59;101346.00;5036649;28;20422;-80
2022/03/15 03:03:37;;;;;;;6.97;2.40;;;;;;;6.65;74.89;101335.84;5035764;28;20077;-80
2022/03/15 03:06:04;;;;;;;8.70;2.70;;;;;;;6.30;76.94;101339.44;5017826;28;20418;-80
2022/03/15 03:08:30;;;;;;;;;;;;;;;6.40;76.26;101337.53;5039780;28;20091;-80
2022/03/15 03:10:57;;;;;;;6.97;2.50;;;;;;;6.35;75.85;101315.72;5038396;28;20295;-80
2022/03/15 03:13:26;;;;;;;6.68;2.17;;;;;;;6.49;75.64;101319.66;5037938;28;20049;-80
2022/03/15 03:15:54;;;;;;;6.43;2.25;;;;;;;6.36;76.08;101320.09;5034750;28;20033;-79
2022/03/15 03:18:20;;;;;;;6.18;2.65;;;;;;;6.35;75.59;101318.41;5036516;28;20034;-80
2022/03/15 03:20:46;;;;;;;6.55;2.05;;;;;;;6.34;75.72;101316.72;5036418;28;20061;-80
2022/03/15 03:23:12;;;;;;;6.18;2.13;;;;;;;6.30;76.36;101315.34;5037277;28;20041;-81
2022/03/15 03:25:37;;;;;;;5.13;1.80;;;;;;;6.41;75.46;101304.41;5035794;28;20037;-80
2022/03/15 03:28:05;;;;;;;10.10;2.73;;;;;;;6.43;75.59;101312.28;5035710;28;20137;-80
2022/03/15 03:30:30;;;;;;;7.07;2.08;;;;;;;6.34;75.72;101314.03;5035289;28;20475;-80
2022/03/15 03:32:56;;;;;;;5.22;2.22;;;;;;;6.32;76.52;101310.69;5017799;28;20068;-82
2022/03/15 03:35:22;;;;;;;8.85;2.22;;;;;;;6.22;76.58;101310.78;5034799;28;20385;-79
2022/03/15 03:37:47;;;;;;;;;;;;;;;6.27;76.30;101307.63;5034672;28;20464;-79
2022/03/15 03:40:12;;;;;;;6.70;2.10;;;;;;;6.28;76.67;101314.66;5035582;28;19909;-80
2022/03/15 03:42:38;;;;;;;9.53;2.40;;;;;;;6.27;76.01;101304.94;5035726;28;20047;-80
2022/03/15 03:45:05;;;;;;;7.40;2.25;;;;;;;6.32;76.00;101309.84;5035194;28;20043;-80
2022/03/15 03:47:30;;;;;;;6.63;2.97;;;;;;;6.30;76.00;101306.47;5035303;28;20460;-80
2022/03/15 03:49:55;;;;;;;6.13;2.03;;;;;;;6.34;75.68;101300.66;5034753;28;20071;-80
2022/03/15 03:52:21;;;;;;;5.88;2.13;;;;;;;6.37;75.41;101304.88;5034556;28;20391;-83
2022/03/15 03:54:47;;;;;;;5.40;1.97;;;;;;;6.71;74.30;101304.94;5034854;28;20087;-80
2022/03/15 03:57:12;;;;;;;7.70;2.13;;;;;;;6.78;73.86;101296.13;5034168;28;20029;-81
2022/03/15 03:59:37;;;;;;;5.70;2.13;;;;;;;6.73;74.07;101294.91;5034992;28;20032;-80
2022/03/15 04:02:03;;;;;;;5.97;2.37;;;;;;;6.57;74.57;101303.69;5034897;28;20729;-80
2022/03/15 04:04:29;;;;;;;8.25;2.50;;;;;;;6.55;74.39;101305.66;5035178;28;20025;-80
2022/03/15 04:06:55;;;;;;;8.03;2.70;;;;;;;6.55;74.63;101303.00;5034837;28;20514;-80
2022/03/15 04:09:21;;;;;;;6.95;2.30;;;;;;;6.51;74.91;101307.81;5035676;28;20079;-79
2022/03/15 04:11:47;;;;;;;8.18;2.90;;;;;;;6.49;75.04;101300.94;5042130;28;20030;-82
2022/03/15 04:14:12;;;;;;;7.57;2.63;;;;;;;6.55;74.31;101305.66;5045123;28;20075;-81
2022/03/15 04:16:39;;;;;;;6.20;2.60;;;;;;;6.44;74.91;101305.94;5036803;28;20025;-79
2022/03/15 04:19:05;;;;;;;5.22;2.15;;;;;;;6.33;76.25;101307.00;5035705;28;20084;-78
2022/03/15 04:21:30;;;;;;;7.68;2.80;;;;;;;6.33;76.04;101311.53;5035742;28;20029;-78
2022/03/15 04:23:56;;;;;;;5.93;2.70;;;;;;;6.25;76.37;101321.19;5034611;28;20487;-79
2022/03/15 04:26:23;;;;;;;5.57;2.53;;;;;;;6.23;76.06;101327.69;5034664;28;20388;-79
2022/03/15 04:28:49;;;;;;;6.47;2.42;;;;;;;6.24;75.91;101318.66;5016579;28;20030;-78
2022/03/15 04:31:14;;;;;;;6.85;2.00;;;;;;;6.15;76.31;101309.72;5034468;28;20040;-79
2022/03/15 04:33:40;;;;;;;6.90;2.40;;;;;;;6.19;76.91;101321.78;5034070;28;20092;-78
2022/03/15 04:36:07;;;;;;;5.97;2.13;;;;;;;6.27;76.28;101319.16;5034294;28;20030;-78
2022/03/15 04:38:33;;;;;;;7.70;2.45;;;;;;;6.31;76.17;101321.53;5034573;28;20132;-78
2022/03/15 04:40:59;;;;;;;4.28;1.95;;;;;;;6.20;76.43;101322.63;5034286;28;20057;-78
2022/03/15 04:43:25;;;;;;;;;;;;;;;6.35;76.43;101325.59;5035168;28;20040;-78
2022/03/15 04:45:50;;;;;;;5.45;2.45;;;;;;;6.34;75.90;101307.84;5033220;28;19909;-78
2022/03/15 04:48:23;;;;;;;6.18;2.33;;;;;;;6.27;75.66;101307.63;5034508;28;20024;-78
2022/03/15 04:50:49;;;;;;;8.27;2.30;;;;;;;6.48;74.68;101302.75;5034474;28;20037;-79
2022/03/15 04:53:15;;;;;;;5.63;2.40;;;;;;;6.55;74.86;101295.78;5034819;28;20052;-79
2022/03/15 04:55:40;;;;;;;6.22;2.28;;;;;;;6.72;73.67;101288.69;5034327;28;20502;-78
2022/03/15 04:58:06;;;;;;;4.13;1.75;;;;;;;6.85;72.92;101285.59;5034781;28;20029;-78
2022/03/15 05:00:31;;;;;;;8.60;1.98;;;;;;;7.02;72.03;101281.97;5034375;28;20030;-78
2022/03/15 05:02:57;;;;;;;4.63;1.80;;;;;;;7.04;71.92;101290.69;5035522;28;20064;-79
2022/03/15 05:05:22;;;;;;;8.88;2.15;;;;;;;7.03;72.12;101280.13;5033167;28;20037;-77
2022/03/15 05:07:48;;;;;;;5.63;1.97;;;;;;;7.06;71.77;101288.69;5034869;28;20041;-79
2022/03/15 05:12:57;;;;;;;7.60;2.30;;;;;;;7.05;72.22;101288.84;5034000;28;20036;-78
2022/03/15 05:15:23;;;;;;;7.00;1.95;;;;;;;7.07;71.71;101285.03;5034310;28;20030;-78
2022/03/15 05:17:48;;;;;;;5.75;1.92;;;;;;;7.18;71.23;101284.72;5034614;28;20037;-78
2022/03/15 05:20:15;;;;;;;6.50;2.30;;;;;;;7.12;71.41;101281.88;5034164;28;20029;-80
2022/03/15 05:22:42;;;;;;;8.55;2.75;;;;;;;7.07;71.66;101279.66;5034324;28;20045;-78
2022/03/15 05:25:08;;;;;;;3.53;1.35;;;;;;;6.99;72.04;101273.44;5032594;28;20040;-78
2022/03/15 05:27:34;;;;;;;4.95;1.85;;;;;;;7.14;71.49;101270.00;5034579;28;20384;-79
2022/03/15 05:30:00;;;;;;;4.97;1.88;;;;;;;7.04;71.89;101274.63;5034436;28;20064;-78
2022/03/15 05:32:25;;;;;;;4.00;1.50;;;;;;;6.97;71.55;101270.94;5034244;28;20519;-78
2022/03/15 05:34:51;;;;;;;7.70;1.52;;;;;;;7.02;71.38;101265.06;5034759;28;20369;-79
2022/03/15 05:37:17;;;;;;;6.45;2.10;;;;;;;6.98;71.53;101269.94;5034590;28;20392;-80
2022/03/15 05:39:42;;;;;;;5.43;1.87;;;;;;;7.01;71.66;101269.56;5034972;28;20060;-79
2022/03/15 05:42:09;;;;;;;6.68;1.85;;;;;;;7.01;71.34;101269.56;5034481;28;20260;-77
2022/03/15 05:44:34;;;;;;;4.40;1.75;;;;;;;7.01;71.46;101266.06;5034550;28;20029;-78
2022/03/15 05:47:00;;;;;;;6.73;1.70;;;;;;;6.94;71.86;101264.03;5035128;28;20124;-80
2022/03/15 05:49:25;;;;;;;6.75;1.52;;;;;;;6.86;71.76;101255.97;5032925;28;20594;-77
2022/03/15 05:51:50;;;;;;;5.47;2.42;;;;;;;6.95;71.53;101273.75;5033965;28;20033;-78
2022/03/15 05:54:16;;;;;;;5.50;2.20;;;;;;;6.77;72.93;101262.28;5034322;28;20044;-77
2022/03/15 05:56:41;;;;;;;4.10;1.63;;;;;;;7.07;72.25;101262.75;5034519;28;20061;-78
2022/03/15 05:59:07;;;;;;;4.87;1.77;;;;;;;7.12;71.28;101261.28;5034181;28;20034;-77
2022/03/15 06:01:33;;;;;;;6.40;2.30;;;;;;;7.08;71.20;101267.94;5035028;28;20037;-77
2022/03/15 06:03:59;;;;;;;4.93;1.67;;;;;;;6.97;72.08;101269.09;5033874;28;20110;-78
2022/03/15 06:06:24;;;;;;;6.82;2.25;;;;;;;6.99;71.79;101270.75;5033790;28;20484;-77
2022/03/15 06:08:51;;;;;;;6.20;2.15;;;;;;;7.06;71.48;101274.47;5033917;28;20041;-78
2022/03/15 06:11:19;;;;;;;5.03;1.67;;;;;;;6.94;71.67;101269.41;5033703;28;20452;-79
2022/03/15 06:13:50;;;;;;;6.07;1.70;;;;;;;7.00;71.18;101264.38;5037882;28;20393;-77
2022/03/15 06:16:16;;;;;;;4.95;1.60;;;;;;;7.11;70.99;101269.47;5036624;28;20025;-79
2022/03/15 06:18:41;;;;;;;10.50;2.55;;;;;;;7.10;71.29;101274.00;5038504;28;20052;-79
2022/03/15 06:21:07;;;;;;;4.93;1.73;;;;;;;6.99;70.98;101265.41;5037261;28;20121;-81
2022/03/15 06:23:32;;;;;;;4.90;1.70;;;;;;;6.91;71.40;101263.53;5037141;28;20044;-78
2022/03/15 06:25:58;;;;;;;6.47;1.63;;;;;;;7.10;71.30;101254.38;5037959;28;20045;-78
2022/03/15 06:28:23;;;;;;;4.73;1.83;;;;;;;6.99;71.76;101260.06;5036096;28;20339;-78
2022/03/15 06:30:48;;;;;;;6.40;1.87;;;;;;;7.03;71.42;101251.50;5036059;28;20045;-78
2022/03/15 06:33:14;;;;;;;4.47;1.70;;;;;;;6.94;71.89;101255.16;5035973;28;20030;-77
2022/03/15 06:35:42;;;;;;;6.47;1.63;;;;;;;7.03;71.00;101264.91;5035820;28;20034;-78
2022/03/15 06:38:09;;;;;;;4.35;1.60;;;;;;;7.06;70.96;101255.72;5036630;28;20093;-78
2022/03/15 06:40:36;;;;;;;4.90;1.90;;;;;;;7.22;70.09;101245.88;5036991;28;20033;-79
2022/03/15 06:43:02;;;;;;;9.15;2.13;;;;;;;7.26;69.91;101257.97;5036477;28;20076;-78
2022/03/15 06:45:27;;;;;;;;;;;;;;;7.01;71.33;101250.81;5035577;28;20021;-78
2022/03/15 06:47:52;;;;;;;5.38;2.03;;;;;;;7.11;71.51;101250.72;5034904;28;19917;-77
2022/03/15 06:50:18;;;;;;;6.55;2.33;;;;;;;7.08;70.88;101254.53;5035896;28;20162;-78
2022/03/15 06:52:45;;;;;;;7.40;1.83;;;;;;;7.19;70.95;101243.53;5036392;28;20037;-78
2022/03/15 06:55:11;;;;;;;5.40;2.30;;;;;;;7.25;70.47;101252.75;5035582;28;20030;-77
2022/03/15 06:57:37;;;;;;;7.57;1.80;;;;;;;7.27;70.47;101248.91;5018633;28;20417;-78
2022/03/15 07:00:09;;;;;;;3.58;1.67;;;;;;;7.21;70.88;101246.03;5036217;28;20115;-77
2022/03/15 07:02:35;;;;;;;7.00;1.77;;;;;;;7.18;70.45;101241.84;5036267;28;20110;-78
2022/03/15 07:05:00;;;;;;;5.60;1.75;;;;;;;7.46;69.33;101250.47;5036992;28;20468;-78
2022/03/15 07:07:25;;;;;;;4.63;1.90;;;;;;;7.55;68.72;101246.78;5036170;28;20053;-77
2022/03/15 07:09:53;;;;;;;4.65;2.00;;;;;;;7.56;68.42;101242.25;5036681;28;20275;-78
2022/03/15 07:12:19;;;;;;;4.13;1.70;;;;;;;7.49;69.02;101242.09;5035720;28;20083;-78
2022/03/15 07:14:45;;;;;;;7.90;2.72;;;;;;;7.55;68.05;101245.94;5036298;28;20029;-77
2022/03/15 07:17:11;;;;;;;7.80;1.98;;;;;;;7.59;67.92;101247.31;5036036;28;20041;-78
2022/03/15 07:19:36;;;;;;;7.60;1.92;;;;;;;7.55;68.33;101233.38;5035991;28;20372;-77
2022/03/15 07:22:02;;;;;;;3.22;1.30;;;;;;;7.75;67.04;101241.94;5036136;28;20033;-79
2022/03/15 07:24:27;;;;;;;2.90;1.05;;;;;;;7.79;67.11;101235.25;5035445;28;20029;-77
2022/03/15 07:26:53;;;;;;;3.33;1.27;;;;;;;7.92;66.65;101234.75;5036753;28;20037;-78
2022/03/15 07:29:18;;;;;;;5.33;1.83;;;;;;;7.99;66.58;101235.75;5035732;28;20448;-78
2022/03/15 07:31:44;;;;;;;7.27;3.17;;;;;;;7.89;66.69;101232.38;5035704;28;20267;-78
2022/03/15 07:34:09;;;;;;;4.10;1.73;;;;;;;7.79;67.56;101227.22;5036152;28;20026;-77
2022/03/15 07:36:35;;;;;;;8.55;1.75;;;;;;;7.95;67.06;101229.03;5035438;28;20033;-78
2022/03/15 07:39:04;;;;;;;5.18;1.70;;;;;;;7.89;67.42;101225.19;5035798;28;20049;-79
2022/03/15 07:41:33;;;;;;;3.70;1.60;;;;;;;7.99;67.09;101220.50;5036550;28;20072;-79
2022/03/15 07:44:03;;;;;;;5.95;2.58;;;;;;;7.85;67.50;101221.19;5036961;28;20090;-78
2022/03/15 07:46:29;;;;;;;3.58;1.60;;;;;;;7.94;67.32;101213.94;5037006;28;20097;-79
2022/03/15 07:48:54;;;;;;;3.42;1.40;;;;;;;8.08;66.71;101215.09;5035644;28;20055;-78
2022/03/15 07:51:20;;;;;;;4.22;1.75;;;;;;;7.92;67.12;101214.13;5036209;28;20037;-78
2022/03/15 07:53:45;;;;;;;4.30;1.47;;;;;;;7.86;67.56;101214.81;5034433;28;20040;-78
2022/03/15 07:56:10;;;;;;;4.97;1.50;;;;;;;7.90;67.14;101208.06;5035870;28;20024;-77
2022/03/15 07:58:36;;;;;;;4.70;1.80;;;;;;;8.02;66.66;101200.53;5035799;28;20330;-78
2022/03/15 08:01:02;;;;;;;6.00;1.85;;;;;;;8.00;66.89;101199.88;5034610;28;20026;-79
2022/03/15 08:03:27;;;;;;;3.15;1.58;;;;;;;7.99;66.72;101201.72;5017787;28;20388;-77
2022/03/15 08:05:53;;;;;;;5.67;1.20;;;;;;;7.97;66.65;101190.31;5035499;28;20053;-78
2022/03/15 08:08:18;;;;;;;4.72;1.60;;;;;;;8.14;66.25;101198.34;5034993;28;20292;-77
2022/03/15 08:10:43;;;;;;;4.07;1.35;;;;;;;8.02;66.53;101192.50;5035488;28;20037;-78
2022/03/15 08:13:10;;;;;;;4.77;1.10;;;;;;;8.12;66.10;101195.81;5035619;28;20033;-79
2022/03/15 08:15:35;;;;;;;4.88;2.08;;;;;;;8.28;65.73;101189.59;5035047;28;20284;-80
2022/03/15 08:18:05;;;;;;;5.28;1.27;;;;;;;8.27;65.61;101188.75;5034339;28;20460;-76
2022/03/15 08:20:33;;;;;;;5.20;1.50;;;;;;;8.34;65.35;101191.63;5034282;28;20115;-78
2022/03/15 08:22:59;;;;;;;3.53;1.27;;;;;;;8.44;65.63;101186.88;5034479;28;20021;-76
2022/03/15 08:25:25;;;;;;;4.05;1.15;;;;;;;8.45;64.58;101183.19;5033885;28;20112;-77
2022/03/15 08:27:51;;;;;;;2.22;1.02;;;;;;;8.33;65.25;101176.53;5033922;28;20068;-78
2022/03/15 08:30:16;;;;;;;5.00;1.58;;;;;;;8.53;64.74;101177.81;5034037;28;20037;-77
2022/03/15 08:32:42;;;;;;;3.90;1.20;;;;;;;8.49;64.58;101172.94;5035874;28;20025;-78
2022/03/15 08:35:08;;;;;;;4.25;1.48;;;;;;;8.68;63.90;101172.53;5035639;28;20040;-78
2022/03/15 08:37:34;;;;;;;;;;;;;;;8.59;64.84;101173.59;5035355;28;20091;-76
2022/03/15 08:40:00;;;;;;;3.43;1.10;;;;;;;8.56;63.98;101177.47;5033768;28;19916;-75
2022/03/15 08:42:26;;;;;;;2.88;1.10;;;;;;;8.53;64.14;101166.22;5034287;28;20037;-79
2022/03/15 08:44:52;;;;;;;6.28;2.17;;;;;;;8.55;64.59;101174.94;5035767;28;20079;-78
2022/03/15 08:47:17;;;;;;;7.15;2.05;;;;;;;8.57;64.17;101168.41;5035666;28;20033;-78
2022/03/15 08:49:43;;;;;;;4.85;1.58;;;;;;;8.56;64.43;101165.88;5034098;28;20029;-80
2022/03/15 08:52:10;;;;;;;3.65;1.42;;;;;;;8.58;64.47;101163.88;5035775;28;20048;-78
2022/03/15 08:54:36;;;;;;;4.68;1.63;;;;;;;8.55;64.92;101165.03;5034707;28;20072;-76
2022/03/15 08:57:01;;;;;;;5.82;2.10;;;;;;;8.59;64.77;101161.00;5033411;28;20449;-76
2022/03/15 08:59:27;;;;;;;6.50;1.65;;;;;;;8.70;65.58;101162.47;5033726;28;20057;-76
2022/03/15 09:01:52;;;;;;;7.25;2.13;;;;;;;8.73;65.22;101151.38;5035739;28;20041;-79
2022/03/15 09:04:18;;;;;;;5.10;1.75;;;;;;;8.64;65.89;101169.34;5032908;28;20064;-76
2022/03/15 09:06:43;;;;;;;4.18;1.50;;;;;;;8.57;65.95;101157.66;5034027;28;20060;-76
2022/03/15 09:09:09;;;;;;;4.28;1.65;;;;;;;8.57;65.53;101156.81;5034897;28;20029;-79
2022/03/15 09:11:35;;;;;;;6.38;1.95;;;;;;;8.61;66.04;101156.28;5034044;28;20124;-78
2022/03/15 09:14:01;;;;;;;4.88;1.38;;;;;;;8.69;65.65;101156.25;5033590;28;20068;-77
2022/03/15 09:16:28;;;;;;;4.90;1.80;;;;;;;8.67;65.26;101155.56;5034450;28;20064;-77
2022/03/15 09:18:53;;;;;;;4.22;1.40;;;;;;;8.76;65.34;101144.81;5034778;28;20049;-77
2022/03/15 09:21:19;;;;;;;3.85;1.45;;;;;;;8.70;65.19;101147.19;5034051;28;20025;-79
2022/03/15 09:23:45;;;;;;;5.00;1.88;;;;;;;8.78;64.80;101138.22;5033540;28;20034;-75
2022/03/15 09:26:11;;;;;;;5.70;1.90;;;;;;;8.98;64.16;101138.63;5034102;28;20371;-79
2022/03/15 09:28:37;;;;;;;6.40;1.35;;;;;;;8.81;64.44;101143.25;5031917;28;20134;-76
2022/03/15 09:31:04;;;;;;;4.38;1.58;;;;;;;8.98;64.42;101141.31;5033045;28;20039;-76
2022/03/15 09:33:29;;;;;;;;;;;;;;;9.01;64.37;101138.28;5034633;28;20025;-79
2022/03/15 09:35:55;;;;;;;3.83;1.42;;;;;;;8.93;64.18;101131.09;5016625;28;20455;-78
2022/03/15 09:38:21;;;;;;;7.78;1.77;;;;;;;8.95;65.01;101129.09;5033127;28;20029;-78
2022/03/15 09:40:53;;;;;;;7.60;1.48;;;;;;;8.88;64.97;101130.78;5033515;28;20594;-78
2022/03/15 09:43:25;;;;;;;3.80;1.17;;;;;;;9.02;65.70;101126.50;5034327;28;20136;-79
2022/03/15 09:45:52;;;;;;;4.43;1.35;;;;;;;8.99;65.44;101130.38;5032931;28;20025;-79
2022/03/15 09:48:25;;;;;;;7.43;1.67;;;;;;;9.04;65.12;101119.09;5037806;28;20033;-77
2022/03/15 09:50:51;;;;;;;6.45;1.80;;;;;;;9.09;65.11;101121.25;5038494;28;20072;-78
2022/03/15 09:53:18;;;;;;;5.20;1.77;;;;;;;9.23;64.01;101117.81;5038394;28;20047;-79
2022/03/15 09:55:45;;;;;;;4.18;1.30;;;;;;;9.24;64.38;101111.41;5038389;28;20041;-79
2022/03/15 09:58:18;;;;;;;5.53;1.80;;;;;;;9.34;64.16;101120.91;5037417;28;20033;-78
2022/03/15 10:00:44;;;;;;;7.55;1.52;;;;;;;9.32;64.33;101109.47;5020545;28;20033;-78
2022/03/15 10:03:09;;;;;;;5.72;1.58;;;;;;;9.40;63.44;101106.75;5038735;28;20063;-78
2022/03/15 10:05:36;;;;;;;3.50;1.58;;;;;;;9.37;64.09;101098.19;5038953;28;20052;-78
2022/03/15 10:08:02;;;;;;;6.03;1.95;;;;;;;9.43;63.56;101102.03;5038235;28;20029;-78
2022/03/15 10:10:28;;;;;;;4.10;1.52;;;;;;;9.43;65.16;101107.41;5038562;28;20021;-79
2022/03/15 10:12:53;;;;;;;6.57;1.50;;;;;;;9.32;65.31;101105.94;5038296;28;20037;-79
2022/03/15 10:15:21;;;;;;;3.28;1.30;;;;;;;9.14;69.38;101091.97;5037038;28;20025;-78
2022/03/15 10:17:53;;;;;;;6.05;1.40;;;;;;;9.17;67.95;101091.63;5039088;28;20487;-79
2022/03/15 10:20:28;;;;;;;3.97;1.45;;;;;;;8.96;69.31;101087.72;5038532;28;20045;-78
2022/03/15 10:22:59;;;;;;;5.25;1.67;;;;;;;8.87;70.33;101091.50;5038458;28;20049;-79
2022/03/15 10:25:27;;;;;;;4.78;1.90;;;;;;;8.91;70.92;101090.13;5039484;28;20034;-78
2022/03/15 10:27:55;;;;;;;3.83;1.65;;;;;;;8.87;71.31;101079.91;5039367;28;20033;-78
2022/03/15 10:30:22;;;;;;;3.70;1.30;;;;;;;8.69;72.29;101083.69;5038389;28;20065;-80
2022/03/15 10:32:48;;;;;;;7.72;2.50;;;;;;;8.76;71.67;101086.53;5037977;28;20042;-80
2022/03/15 10:35:17;;;;;;;9.18;2.45;;;;;;;8.74;73.31;101098.47;5039174;28;20025;-78
2022/03/15 10:37:42;;;;;;;14.65;6.63;;;;;;;8.59;74.79;101091.16;5038494;28;20128;-79
2022/03/15 10:40:08;;;;;;;5.15;1.95;;;;;;;8.72;73.13;101084.38;5037955;28;20061;-79
2022/03/15 10:42:38;;;;;;;;;;;;;;;8.77;74.74;101092.75;5038507;28;20033;-78
2022/03/15 10:45:20;;;;;;;4.78;2.10;;;;;;;8.73;74.67;101088.72;5037722;28;19909;-78
2022/03/15 10:47:54;;;;;;;5.18;2.47;;;;;;;8.73;74.82;101086.88;5037287;28;20033;-79
2022/03/15 10:50:23;;;;;;;4.18;1.60;;;;;;;8.81;74.55;101077.91;5037468;28;20167;-79
2022/03/15 10:52:51;;;;;;;6.00;2.20;;;;;;;8.97;74.26;101083.19;5037554;28;20095;-79
2022/03/15 10:55:28;;;;;;;5.75;1.77;;;;;;;8.98;74.42;101090.22;5036066;28;20029;-78
2022/03/15 10:58:05;;;;;;;5.40;1.67;;;;;;;9.11;72.95;101079.75;5036351;28;20025;-78
2022/03/15 11:00:38;;;;;;;4.32;1.92;;;;;;;9.18;72.26;101079.84;5036371;28;20075;-78
2022/03/15 11:03:09;;;;;;;5.00;1.80;;;;;;;9.31;72.04;101070.19;5034084;28;20045;-76
2022/03/15 11:05:40;;;;;;;4.15;1.67;;;;;;;9.28;72.47;101069.69;5036019;28;20072;-79
2022/03/15 11:08:10;;;;;;;5.78;1.95;;;;;;;9.30;70.13;101065.81;5036969;28;20041;-79
2022/03/15 11:10:37;;;;;;;4.60;1.50;;;;;;;9.32;70.63;101066.44;5037066;28;20070;-78
2022/03/15 11:13:14;;;;;;;7.25;1.30;;;;;;;9.13;71.56;101061.59;5036613;28;20045;-83
2022/03/15 11:15:49;;;;;;;5.70;1.98;;;;;;;8.94;73.50;101072.81;5035259;28;20034;-76
2022/03/15 11:18:16;;;;;;;4.40;1.70;;;;;;;8.86;74.94;101070.16;5034742;28;20033;-77
2022/03/15 11:20:44;;;;;;;4.70;1.55;;;;;;;8.70;75.55;101060.38;5035222;28;20060;-76
2022/03/15 11:23:12;;;;;;;4.25;1.30;;;;;;;8.97;74.40;101045.56;5033887;28;20025;-78
2022/03/15 11:25:45;;;;;;;5.07;1.77;;;;;;;8.89;75.17;101043.78;5036353;28;20053;-77
2022/03/15 11:28:27;;;;;;;3.35;1.00;;;;;;;8.94;75.30;101030.66;5036425;28;20029;-78
2022/03/15 11:30:53;;;;;;;2.92;1.20;;;;;;;8.93;75.42;101030.81;5036529;28;20021;-80
2022/03/15 11:33:19;;;;;;;4.50;1.20;;;;;;;9.04;75.39;101033.09;5035845;28;20109;-78